sensor_id;sensor_type;location;lat;lon;timestamp;P1;durP1;ratioP1;P2;durP2;ratioP2
34900;SDS011;21112;51.976;5.660;2022-10-12T00:00:43;7.40;;;2.58;;
34900;SDS011;21112;51.976;5.660;2022-10-12T00:03:10;9.80;;;3.10;;
34900;SDS011;21112;51.976;5.660;2022-10-12T00:05:37;8.57;;;3.00;;
34900;SDS011;21112;51.976;5.660;2022-10-12T00:08:06;6.60;;;2.42;;
34900;SDS011;21112;51.976;5.660;2022-10-12T00:10:33;8.88;;;2.60;;
34900;SDS011;21112;51.976;5.660;2022-10-12T00:12:59;6.88;;;2.60;;
34900;SDS011;21112;51.976;5.660;2022-10-12T00:15:26;9.15;;;2.55;;
34900;SDS011;21112;51.976;5.660;2022-10-12T00:17:55;7.30;;;2.53;;
34900;SDS011;21112;51.976;5.660;2022-10-12T00:20:21;7.07;;;2.55;;
34900;SDS011;21112;51.976;5.660;2022-10-12T00:22:48;8.40;;;2.33;;
34900;SDS011;21112;51.976;5.660;2022-10-12T00:25:16;4.80;;;2.10;;
34900;SDS011;21112;51.976;5.660;2022-10-12T00:27:43;8.88;;;2.42;;
34900;SDS011;21112;51.976;5.660;2022-10-12T00:30:11;7.65;;;2.35;;
34900;SDS011;21112;51.976;5.660;2022-10-12T00:32:37;6.43;;;2.47;;
34900;SDS011;21112;51.976;5.660;2022-10-12T00:35:04;7.65;;;2.63;;
34900;SDS011;21112;51.976;5.660;2022-10-12T00:37:31;7.82;;;2.45;;
34900;SDS011;21112;51.976;5.660;2022-10-12T00:39:58;8.38;;;2.38;;
34900;SDS011;21112;51.976;5.660;2022-10-12T00:42:26;10.20;;;2.30;;
34900;SDS011;21112;51.976;5.660;2022-10-12T00:44:52;5.10;;;1.92;;
34900;SDS011;21112;51.976;5.660;2022-10-12T00:47:21;5.45;;;2.00;;
34900;SDS011;21112;51.976;5.660;2022-10-12T00:49:50;6.18;;;2.17;;
34900;SDS011;21112;51.976;5.660;2022-10-12T00:52:18;8.85;;;2.20;;
34900;SDS011;21112;51.976;5.660;2022-10-12T00:54:46;5.63;;;2.20;;
34900;SDS011;21112;51.976;5.660;2022-10-12T00:57:13;7.88;;;2.53;;
34900;SDS011;21112;51.976;5.660;2022-10-12T00:59:42;5.20;;;1.75;;
34900;SDS011;21112;51.976;5.660;2022-10-12T01:02:09;6.25;;;1.98;;
34900;SDS011;21112;51.976;5.660;2022-10-12T01:04:37;4.88;;;1.80;;
34900;SDS011;21112;51.976;5.660;2022-10-12T01:07:04;5.45;;;1.70;;
34900;SDS011;21112;51.976;5.660;2022-10-12T01:09:30;4.93;;;1.80;;
34900;SDS011;21112;51.976;5.660;2022-10-12T01:11:57;5.68;;;1.95;;
34900;SDS011;21112;51.976;5.660;2022-10-12T01:14:24;8.65;;;2.30;;
34900;SDS011;21112;51.976;5.660;2022-10-12T01:16:53;9.38;;;2.47;;
34900;SDS011;21112;51.976;5.660;2022-10-12T01:19:27;5.05;;;1.70;;
34900;SDS011;21112;51.976;5.660;2022-10-12T01:21:56;7.57;;;1.80;;
34900;SDS011;21112;51.976;5.660;2022-10-12T01:24:30;8.15;;;1.80;;
34900;SDS011;21112;51.976;5.660;2022-10-12T01:27:01;7.43;;;1.80;;
34900;SDS011;21112;51.976;5.660;2022-10-12T01:29:34;6.68;;;1.67;;
34900;SDS011;21112;51.976;5.660;2022-10-12T01:32:05;4.63;;;1.70;;
34900;SDS011;21112;51.976;5.660;2022-10-12T01:34:37;4.15;;;1.60;;
34900;SDS011;21112;51.976;5.660;2022-10-12T01:37:06;6.25;;;1.70;;
34900;SDS011;21112;51.976;5.660;2022-10-12T01:39:37;4.88;;;1.55;;
34900;SDS011;21112;51.976;5.660;2022-10-12T01:42:06;4.28;;;1.63;;
34900;SDS011;21112;51.976;5.660;2022-10-12T01:44:34;4.87;;;1.67;;
34900;SDS011;21112;51.976;5.660;2022-10-12T01:47:00;8.15;;;2.00;;
34900;SDS011;21112;51.976;5.660;2022-10-12T01:49:29;6.25;;;1.58;;
34900;SDS011;21112;51.976;5.660;2022-10-12T01:52:12;4.25;;;1.70;;
34900;SDS011;21112;51.976;5.660;2022-10-12T01:54:45;4.97;;;1.33;;
34900;SDS011;21112;51.976;5.660;2022-10-12T01:57:16;7.10;;;1.83;;
34900;SDS011;21112;51.976;5.660;2022-10-12T02:02:14;7.47;;;1.65;;
34900;SDS011;21112;51.976;5.660;2022-10-12T02:04:43;5.90;;;1.70;;
34900;SDS011;21112;51.976;5.660;2022-10-12T02:07:15;6.90;;;1.70;;
34900;SDS011;21112;51.976;5.660;2022-10-12T02:09:45;4.45;;;1.33;;
34900;SDS011;21112;51.976;5.660;2022-10-12T02:12:13;4.68;;;1.88;;
34900;SDS011;21112;51.976;5.660;2022-10-12T02:14:42;7.45;;;2.08;;
34900;SDS011;21112;51.976;5.660;2022-10-12T02:17:10;4.03;;;1.42;;
34900;SDS011;21112;51.976;5.660;2022-10-12T02:19:39;7.25;;;1.63;;
34900;SDS011;21112;51.976;5.660;2022-10-12T02:22:07;9.93;;;1.75;;
34900;SDS011;21112;51.976;5.660;2022-10-12T02:27:01;5.95;;;1.60;;
34900;SDS011;21112;51.976;5.660;2022-10-12T02:29:30;4.63;;;1.67;;
34900;SDS011;21112;51.976;5.660;2022-10-12T02:31:58;3.47;;;1.48;;
34900;SDS011;21112;51.976;5.660;2022-10-12T02:34:28;5.45;;;1.73;;
34900;SDS011;21112;51.976;5.660;2022-10-12T02:36:59;4.68;;;1.40;;
34900;SDS011;21112;51.976;5.660;2022-10-12T02:39:32;5.30;;;1.40;;
34900;SDS011;21112;51.976;5.660;2022-10-12T02:42:05;5.45;;;1.85;;
34900;SDS011;21112;51.976;5.660;2022-10-12T02:44:34;6.20;;;1.80;;
34900;SDS011;21112;51.976;5.660;2022-10-12T02:47:02;6.80;;;1.55;;
34900;SDS011;21112;51.976;5.660;2022-10-12T02:49:29;6.70;;;1.65;;
34900;SDS011;21112;51.976;5.660;2022-10-12T02:51:57;5.63;;;1.40;;
34900;SDS011;21112;51.976;5.660;2022-10-12T02:54:24;5.07;;;1.70;;
34900;SDS011;21112;51.976;5.660;2022-10-12T02:56:53;4.85;;;1.55;;
34900;SDS011;21112;51.976;5.660;2022-10-12T02:59:20;4.07;;;1.10;;
34900;SDS011;21112;51.976;5.660;2022-10-12T03:01:46;2.45;;;1.13;;
34900;SDS011;21112;51.976;5.660;2022-10-12T03:04:15;5.78;;;1.83;;
34900;SDS011;21112;51.976;5.660;2022-10-12T03:06:42;5.47;;;1.40;;
34900;SDS011;21112;51.976;5.660;2022-10-12T03:09:09;3.28;;;1.40;;
34900;SDS011;21112;51.976;5.660;2022-10-12T03:11:36;5.00;;;1.67;;
34900;SDS011;21112;51.976;5.660;2022-10-12T03:14:09;6.13;;;1.65;;
34900;SDS011;21112;51.976;5.660;2022-10-12T03:16:36;3.30;;;1.20;;
34900;SDS011;21112;51.976;5.660;2022-10-12T03:19:03;3.53;;;1.40;;
34900;SDS011;21112;51.976;5.660;2022-10-12T03:21:30;3.35;;;1.38;;
34900;SDS011;21112;51.976;5.660;2022-10-12T03:23:56;3.05;;;1.30;;
34900;SDS011;21112;51.976;5.660;2022-10-12T03:26:23;4.85;;;1.65;;
34900;SDS011;21112;51.976;5.660;2022-10-12T03:28:49;6.45;;;1.38;;
34900;SDS011;21112;51.976;5.660;2022-10-12T03:31:17;5.97;;;1.55;;
34900;SDS011;21112;51.976;5.660;2022-10-12T03:33:44;4.28;;;1.42;;
34900;SDS011;21112;51.976;5.660;2022-10-12T03:36:11;8.55;;;1.60;;
34900;SDS011;21112;51.976;5.660;2022-10-12T03:38:37;5.15;;;1.70;;
34900;SDS011;21112;51.976;5.660;2022-10-12T03:41:04;4.28;;;1.35;;
34900;SDS011;21112;51.976;5.660;2022-10-12T03:43:31;5.57;;;1.50;;
34900;SDS011;21112;51.976;5.660;2022-10-12T03:45:57;2.80;;;1.35;;
34900;SDS011;21112;51.976;5.660;2022-10-12T03:48:25;3.65;;;1.45;;
34900;SDS011;21112;51.976;5.660;2022-10-12T03:50:52;3.88;;;1.40;;
34900;SDS011;21112;51.976;5.660;2022-10-12T03:53:19;8.27;;;2.00;;
34900;SDS011;21112;51.976;5.660;2022-10-12T03:55:46;10.07;;;1.88;;
34900;SDS011;21112;51.976;5.660;2022-10-12T03:58:12;5.05;;;1.50;;
34900;SDS011;21112;51.976;5.660;2022-10-12T04:00:39;5.07;;;1.88;;
34900;SDS011;21112;51.976;5.660;2022-10-12T04:03:05;4.60;;;1.50;;
34900;SDS011;21112;51.976;5.660;2022-10-12T04:05:33;3.90;;;1.35;;
34900;SDS011;21112;51.976;5.660;2022-10-12T04:08:00;5.32;;;1.50;;
34900;SDS011;21112;51.976;5.660;2022-10-12T04:10:27;4.38;;;1.63;;
34900;SDS011;21112;51.976;5.660;2022-10-12T04:12:53;3.65;;;1.40;;
34900;SDS011;21112;51.976;5.660;2022-10-12T04:15:20;6.47;;;1.40;;
34900;SDS011;21112;51.976;5.660;2022-10-12T04:17:47;6.28;;;1.33;;
34900;SDS011;21112;51.976;5.660;2022-10-12T04:20:13;5.55;;;1.42;;
34900;SDS011;21112;51.976;5.660;2022-10-12T04:22:41;4.57;;;1.67;;
34900;SDS011;21112;51.976;5.660;2022-10-12T04:25:08;4.73;;;1.33;;
34900;SDS011;21112;51.976;5.660;2022-10-12T04:27:35;6.45;;;2.03;;
34900;SDS011;21112;51.976;5.660;2022-10-12T04:30:02;4.93;;;1.80;;
34900;SDS011;21112;51.976;5.660;2022-10-12T04:32:29;4.28;;;1.23;;
34900;SDS011;21112;51.976;5.660;2022-10-12T04:34:56;4.60;;;1.52;;
34900;SDS011;21112;51.976;5.660;2022-10-12T04:37:23;3.45;;;1.42;;
34900;SDS011;21112;51.976;5.660;2022-10-12T04:39:52;5.85;;;1.63;;
34900;SDS011;21112;51.976;5.660;2022-10-12T04:42:19;4.27;;;1.23;;
34900;SDS011;21112;51.976;5.660;2022-10-12T04:44:46;3.35;;;1.27;;
34900;SDS011;21112;51.976;5.660;2022-10-12T04:47:12;5.20;;;1.50;;
34900;SDS011;21112;51.976;5.660;2022-10-12T04:49:39;5.00;;;1.55;;
34900;SDS011;21112;51.976;5.660;2022-10-12T04:52:06;5.78;;;1.63;;
34900;SDS011;21112;51.976;5.660;2022-10-12T04:54:32;4.80;;;1.55;;
34900;SDS011;21112;51.976;5.660;2022-10-12T04:57:00;5.25;;;1.40;;
34900;SDS011;21112;51.976;5.660;2022-10-12T04:59:27;4.30;;;1.30;;
34900;SDS011;21112;51.976;5.660;2022-10-12T05:01:53;4.55;;;1.67;;
34900;SDS011;21112;51.976;5.660;2022-10-12T05:04:20;3.58;;;1.38;;
34900;SDS011;21112;51.976;5.660;2022-10-12T05:06:46;6.70;;;1.35;;
34900;SDS011;21112;51.976;5.660;2022-10-12T05:09:13;4.47;;;1.17;;
34900;SDS011;21112;51.976;5.660;2022-10-12T05:11:40;5.28;;;1.70;;
34900;SDS011;21112;51.976;5.660;2022-10-12T05:14:08;2.78;;;1.20;;
34900;SDS011;21112;51.976;5.660;2022-10-12T05:16:35;3.42;;;1.30;;
34900;SDS011;21112;51.976;5.660;2022-10-12T05:19:02;2.88;;;1.13;;
34900;SDS011;21112;51.976;5.660;2022-10-12T05:21:29;5.05;;;1.50;;
34900;SDS011;21112;51.976;5.660;2022-10-12T05:23:56;4.60;;;1.60;;
34900;SDS011;21112;51.976;5.660;2022-10-12T05:26:22;4.07;;;1.52;;
34900;SDS011;21112;51.976;5.660;2022-10-12T05:28:49;4.30;;;1.80;;
34900;SDS011;21112;51.976;5.660;2022-10-12T05:31:18;8.32;;;2.05;;
34900;SDS011;21112;51.976;5.660;2022-10-12T05:33:44;3.57;;;1.60;;
34900;SDS011;21112;51.976;5.660;2022-10-12T05:36:11;4.53;;;1.77;;
34900;SDS011;21112;51.976;5.660;2022-10-12T05:38:38;4.05;;;1.48;;
34900;SDS011;21112;51.976;5.660;2022-10-12T05:41:05;6.07;;;1.77;;
34900;SDS011;21112;51.976;5.660;2022-10-12T05:43:31;6.25;;;1.80;;
34900;SDS011;21112;51.976;5.660;2022-10-12T05:45:58;3.72;;;1.70;;
34900;SDS011;21112;51.976;5.660;2022-10-12T05:48:27;3.75;;;1.80;;
34900;SDS011;21112;51.976;5.660;2022-10-12T05:50:53;5.10;;;1.98;;
34900;SDS011;21112;51.976;5.660;2022-10-12T05:53:20;5.32;;;2.08;;
34900;SDS011;21112;51.976;5.660;2022-10-12T05:55:51;4.95;;;1.77;;
34900;SDS011;21112;51.976;5.660;2022-10-12T05:58:18;6.15;;;1.83;;
34900;SDS011;21112;51.976;5.660;2022-10-12T06:00:44;5.63;;;1.98;;
34900;SDS011;21112;51.976;5.660;2022-10-12T06:03:11;5.30;;;1.95;;
34900;SDS011;21112;51.976;5.660;2022-10-12T06:05:39;5.90;;;1.88;;
34900;SDS011;21112;51.976;5.660;2022-10-12T06:08:05;5.63;;;1.80;;
34900;SDS011;21112;51.976;5.660;2022-10-12T06:10:33;5.18;;;1.90;;
34900;SDS011;21112;51.976;5.660;2022-10-12T06:12:59;6.05;;;1.65;;
34900;SDS011;21112;51.976;5.660;2022-10-12T06:15:26;5.50;;;1.90;;
34900;SDS011;21112;51.976;5.660;2022-10-12T06:17:53;8.45;;;2.10;;
34900;SDS011;21112;51.976;5.660;2022-10-12T06:20:19;5.50;;;1.88;;
34900;SDS011;21112;51.976;5.660;2022-10-12T06:22:48;4.88;;;1.90;;
34900;SDS011;21112;51.976;5.660;2022-10-12T06:25:14;7.85;;;2.08;;
34900;SDS011;21112;51.976;5.660;2022-10-12T06:27:43;6.70;;;2.13;;
34900;SDS011;21112;51.976;5.660;2022-10-12T06:30:10;8.45;;;2.13;;
34900;SDS011;21112;51.976;5.660;2022-10-12T06:32:36;9.25;;;2.33;;
34900;SDS011;21112;51.976;5.660;2022-10-12T06:35:03;5.43;;;2.40;;
34900;SDS011;21112;51.976;5.660;2022-10-12T06:37:31;4.10;;;1.98;;
34900;SDS011;21112;51.976;5.660;2022-10-12T06:39:59;4.55;;;1.95;;
34900;SDS011;21112;51.976;5.660;2022-10-12T06:42:26;5.68;;;2.15;;
34900;SDS011;21112;51.976;5.660;2022-10-12T06:44:52;8.07;;;2.25;;
34900;SDS011;21112;51.976;5.660;2022-10-12T06:47:19;8.15;;;2.65;;
34900;SDS011;21112;51.976;5.660;2022-10-12T06:49:45;6.43;;;2.15;;
34900;SDS011;21112;51.976;5.660;2022-10-12T06:52:12;7.53;;;2.28;;
34900;SDS011;21112;51.976;5.660;2022-10-12T06:54:38;6.60;;;2.38;;
34900;SDS011;21112;51.976;5.660;2022-10-12T06:57:06;5.50;;;1.92;;
34900;SDS011;21112;51.976;5.660;2022-10-12T06:59:33;7.60;;;2.40;;
34900;SDS011;21112;51.976;5.660;2022-10-12T07:02:00;4.28;;;1.73;;
34900;SDS011;21112;51.976;5.660;2022-10-12T07:04:26;5.10;;;1.85;;
34900;SDS011;21112;51.976;5.660;2022-10-12T07:06:53;4.10;;;1.67;;
34900;SDS011;21112;51.976;5.660;2022-10-12T07:09:19;5.25;;;1.70;;
34900;SDS011;21112;51.976;5.660;2022-10-12T07:11:46;5.70;;;2.03;;
34900;SDS011;21112;51.976;5.660;2022-10-12T07:14:14;4.75;;;1.98;;
34900;SDS011;21112;51.976;5.660;2022-10-12T07:16:40;7.75;;;3.25;;
34900;SDS011;21112;51.976;5.660;2022-10-12T07:19:07;6.75;;;2.90;;
34900;SDS011;21112;51.976;5.660;2022-10-12T07:21:34;6.47;;;2.38;;
34900;SDS011;21112;51.976;5.660;2022-10-12T07:24:00;6.97;;;2.45;;
34900;SDS011;21112;51.976;5.660;2022-10-12T07:26:27;6.40;;;2.63;;
34900;SDS011;21112;51.976;5.660;2022-10-12T07:28:53;7.00;;;2.92;;
34900;SDS011;21112;51.976;5.660;2022-10-12T07:31:21;5.97;;;2.53;;
34900;SDS011;21112;51.976;5.660;2022-10-12T07:33:48;12.20;;;2.47;;
34900;SDS011;21112;51.976;5.660;2022-10-12T07:36:15;6.13;;;2.30;;
34900;SDS011;21112;51.976;5.660;2022-10-12T07:38:41;6.85;;;2.17;;
34900;SDS011;21112;51.976;5.660;2022-10-12T07:41:09;9.35;;;2.97;;
34900;SDS011;21112;51.976;5.660;2022-10-12T07:43:36;4.90;;;1.88;;
34900;SDS011;21112;51.976;5.660;2022-10-12T07:46:03;6.28;;;2.55;;
34900;SDS011;21112;51.976;5.660;2022-10-12T07:48:31;4.38;;;2.00;;
34900;SDS011;21112;51.976;5.660;2022-10-12T07:53:25;6.75;;;2.70;;
34900;SDS011;21112;51.976;5.660;2022-10-12T07:55:51;7.15;;;2.35;;
34900;SDS011;21112;51.976;5.660;2022-10-12T07:58:18;6.13;;;2.35;;
34900;SDS011;21112;51.976;5.660;2022-10-12T08:00:44;4.90;;;2.10;;
34900;SDS011;21112;51.976;5.660;2022-10-12T08:03:11;7.63;;;2.40;;
34900;SDS011;21112;51.976;5.660;2022-10-12T08:05:39;7.72;;;2.80;;
34900;SDS011;21112;51.976;5.660;2022-10-12T08:08:07;7.95;;;3.15;;
34900;SDS011;21112;51.976;5.660;2022-10-12T08:10:34;11.25;;;3.83;;
34900;SDS011;21112;51.976;5.660;2022-10-12T08:13:00;6.85;;;2.60;;
34900;SDS011;21112;51.976;5.660;2022-10-12T08:15:27;8.73;;;3.05;;
34900;SDS011;21112;51.976;5.660;2022-10-12T08:17:54;5.70;;;2.45;;
34900;SDS011;21112;51.976;5.660;2022-10-12T08:20:20;9.85;;;3.28;;
34900;SDS011;21112;51.976;5.660;2022-10-12T08:22:48;13.60;;;4.20;;
34900;SDS011;21112;51.976;5.660;2022-10-12T08:25:15;7.97;;;2.90;;
34900;SDS011;21112;51.976;5.660;2022-10-12T08:27:41;15.98;;;4.32;;
34900;SDS011;21112;51.976;5.660;2022-10-12T08:30:08;13.52;;;3.88;;
34900;SDS011;21112;51.976;5.660;2022-10-12T08:32:35;9.25;;;2.67;;
34900;SDS011;21112;51.976;5.660;2022-10-12T08:35:02;10.98;;;3.33;;
34900;SDS011;21112;51.976;5.660;2022-10-12T08:37:28;9.55;;;3.50;;
34900;SDS011;21112;51.976;5.660;2022-10-12T08:39:56;13.43;;;4.20;;
34900;SDS011;21112;51.976;5.660;2022-10-12T08:42:29;5.97;;;2.60;;
34900;SDS011;21112;51.976;5.660;2022-10-12T08:45:06;4.90;;;2.25;;
34900;SDS011;21112;51.976;5.660;2022-10-12T08:47:39;9.60;;;3.55;;
34900;SDS011;21112;51.976;5.660;2022-10-12T08:50:07;10.80;;;3.55;;
34900;SDS011;21112;51.976;5.660;2022-10-12T08:52:40;11.82;;;4.22;;
34900;SDS011;21112;51.976;5.660;2022-10-12T08:55:18;7.07;;;2.92;;
34900;SDS011;21112;51.976;5.660;2022-10-12T08:57:46;13.65;;;3.90;;
34900;SDS011;21112;51.976;5.660;2022-10-12T09:00:13;8.88;;;3.30;;
34900;SDS011;21112;51.976;5.660;2022-10-12T09:02:47;10.82;;;3.55;;
34900;SDS011;21112;51.976;5.660;2022-10-12T09:05:16;7.30;;;3.60;;
34900;SDS011;21112;51.976;5.660;2022-10-12T09:07:44;13.05;;;4.13;;
34900;SDS011;21112;51.976;5.660;2022-10-12T09:10:19;12.18;;;3.42;;
34900;SDS011;21112;51.976;5.660;2022-10-12T09:12:50;10.50;;;3.00;;
34900;SDS011;21112;51.976;5.660;2022-10-12T09:15:22;8.60;;;3.60;;
34900;SDS011;21112;51.976;5.660;2022-10-12T09:17:49;10.35;;;3.72;;
34900;SDS011;21112;51.976;5.660;2022-10-12T09:20:19;10.23;;;3.80;;
34900;SDS011;21112;51.976;5.660;2022-10-12T09:22:47;11.55;;;3.88;;
34900;SDS011;21112;51.976;5.660;2022-10-12T09:25:14;9.77;;;3.67;;
34900;SDS011;21112;51.976;5.660;2022-10-12T09:27:45;7.82;;;3.17;;
34900;SDS011;21112;51.976;5.660;2022-10-12T09:30:12;7.93;;;3.00;;
34900;SDS011;21112;51.976;5.660;2022-10-12T09:32:42;8.15;;;3.10;;
34900;SDS011;21112;51.976;5.660;2022-10-12T09:35:11;9.07;;;3.67;;
34900;SDS011;21112;51.976;5.660;2022-10-12T09:37:38;11.20;;;4.22;;
34900;SDS011;21112;51.976;5.660;2022-10-12T09:40:05;10.65;;;4.22;;
34900;SDS011;21112;51.976;5.660;2022-10-12T09:42:32;13.43;;;4.60;;
34900;SDS011;21112;51.976;5.660;2022-10-12T09:45:04;15.30;;;4.32;;
34900;SDS011;21112;51.976;5.660;2022-10-12T09:47:34;10.70;;;4.05;;
34900;SDS011;21112;51.976;5.660;2022-10-12T09:50:03;6.82;;;2.70;;
34900;SDS011;21112;51.976;5.660;2022-10-12T09:52:38;6.57;;;3.08;;
34900;SDS011;21112;51.976;5.660;2022-10-12T09:55:16;11.48;;;3.92;;
34900;SDS011;21112;51.976;5.660;2022-10-12T10:00:23;10.05;;;3.75;;
34900;SDS011;21112;51.976;5.660;2022-10-12T10:02:50;13.82;;;4.82;;
34900;SDS011;21112;51.976;5.660;2022-10-12T10:05:22;13.57;;;4.20;;
34900;SDS011;21112;51.976;5.660;2022-10-12T10:07:49;8.45;;;3.83;;
34900;SDS011;21112;51.976;5.660;2022-10-12T10:10:16;12.30;;;4.15;;
34900;SDS011;21112;51.976;5.660;2022-10-12T10:12:47;15.50;;;4.83;;
34900;SDS011;21112;51.976;5.660;2022-10-12T10:15:24;9.70;;;4.45;;
34900;SDS011;21112;51.976;5.660;2022-10-12T10:17:54;13.55;;;4.60;;
34900;SDS011;21112;51.976;5.660;2022-10-12T10:20:25;17.00;;;5.38;;
34900;SDS011;21112;51.976;5.660;2022-10-12T10:22:52;13.75;;;4.70;;
34900;SDS011;21112;51.976;5.660;2022-10-12T10:25:20;12.40;;;5.05;;
34900;SDS011;21112;51.976;5.660;2022-10-12T10:27:48;11.05;;;4.00;;
34900;SDS011;21112;51.976;5.660;2022-10-12T10:30:20;10.25;;;4.25;;
34900;SDS011;21112;51.976;5.660;2022-10-12T10:32:49;16.67;;;5.05;;
34900;SDS011;21112;51.976;5.660;2022-10-12T10:35:31;11.80;;;4.00;;
34900;SDS011;21112;51.976;5.660;2022-10-12T10:37:58;14.73;;;4.15;;
34900;SDS011;21112;51.976;5.660;2022-10-12T10:40:25;13.50;;;4.70;;
34900;SDS011;21112;51.976;5.660;2022-10-12T10:42:53;8.82;;;3.83;;
34900;SDS011;21112;51.976;5.660;2022-10-12T10:45:21;9.73;;;4.15;;
34900;SDS011;21112;51.976;5.660;2022-10-12T10:47:50;14.52;;;4.72;;
34900;SDS011;21112;51.976;5.660;2022-10-12T10:50:24;14.38;;;5.10;;
34900;SDS011;21112;51.976;5.660;2022-10-12T10:52:52;11.93;;;4.47;;
34900;SDS011;21112;51.976;5.660;2022-10-12T10:55:19;14.23;;;4.37;;
34900;SDS011;21112;51.976;5.660;2022-10-12T10:57:48;9.65;;;4.22;;
34900;SDS011;21112;51.976;5.660;2022-10-12T11:00:17;9.90;;;4.70;;
34900;SDS011;21112;51.976;5.660;2022-10-12T11:02:46;10.40;;;4.55;;
34900;SDS011;21112;51.976;5.660;2022-10-12T11:05:17;15.05;;;4.65;;
34900;SDS011;21112;51.976;5.660;2022-10-12T11:07:46;12.57;;;4.82;;
34900;SDS011;21112;51.976;5.660;2022-10-12T11:10:16;18.15;;;5.03;;
34900;SDS011;21112;51.976;5.660;2022-10-12T11:12:44;13.02;;;4.22;;
34900;SDS011;21112;51.976;5.660;2022-10-12T11:15:16;11.95;;;5.25;;
34900;SDS011;21112;51.976;5.660;2022-10-12T11:17:44;13.35;;;4.70;;
34900;SDS011;21112;51.976;5.660;2022-10-12T11:20:20;11.23;;;4.22;;
34900;SDS011;21112;51.976;5.660;2022-10-12T11:22:52;13.00;;;4.50;;
34900;SDS011;21112;51.976;5.660;2022-10-12T11:27:45;13.88;;;4.97;;
34900;SDS011;21112;51.976;5.660;2022-10-12T11:30:13;12.63;;;5.00;;
34900;SDS011;21112;51.976;5.660;2022-10-12T11:32:40;14.00;;;5.10;;
34900;SDS011;21112;51.976;5.660;2022-10-12T11:35:09;18.98;;;5.85;;
34900;SDS011;21112;51.976;5.660;2022-10-12T11:37:41;12.93;;;4.13;;
34900;SDS011;21112;51.976;5.660;2022-10-12T11:40:14;13.00;;;5.70;;
34900;SDS011;21112;51.976;5.660;2022-10-12T11:42:43;13.93;;;5.10;;
34900;SDS011;21112;51.976;5.660;2022-10-12T11:45:14;14.82;;;5.13;;
34900;SDS011;21112;51.976;5.660;2022-10-12T11:47:43;13.48;;;5.05;;
34900;SDS011;21112;51.976;5.660;2022-10-12T11:50:16;8.32;;;3.53;;
34900;SDS011;21112;51.976;5.660;2022-10-12T11:52:45;10.00;;;4.20;;
34900;SDS011;21112;51.976;5.660;2022-10-12T11:55:25;14.73;;;4.93;;
34900;SDS011;21112;51.976;5.660;2022-10-12T11:57:52;9.52;;;4.13;;
34900;SDS011;21112;51.976;5.660;2022-10-12T12:00:21;11.82;;;3.50;;
34900;SDS011;21112;51.976;5.660;2022-10-12T12:02:49;10.50;;;4.25;;
34900;SDS011;21112;51.976;5.660;2022-10-12T12:05:16;10.50;;;3.87;;
34900;SDS011;21112;51.976;5.660;2022-10-12T12:07:45;11.75;;;3.78;;
34900;SDS011;21112;51.976;5.660;2022-10-12T12:15:42;10.18;;;3.92;;
34900;SDS011;21112;51.976;5.660;2022-10-12T12:19:09;11.05;;;3.95;;
34900;SDS011;21112;51.976;5.660;2022-10-12T12:21:15;12.00;;;4.35;;
34900;SDS011;21112;51.976;5.660;2022-10-12T12:23:49;10.68;;;3.47;;
34900;SDS011;21112;51.976;5.660;2022-10-12T12:26:17;12.60;;;4.38;;
34900;SDS011;21112;51.976;5.660;2022-10-12T12:28:44;18.73;;;5.07;;
34900;SDS011;21112;51.976;5.660;2022-10-12T12:31:15;12.45;;;4.13;;
34900;SDS011;21112;51.976;5.660;2022-10-12T12:33:42;17.63;;;5.05;;
34900;SDS011;21112;51.976;5.660;2022-10-12T12:36:11;9.50;;;3.72;;
34900;SDS011;21112;51.976;5.660;2022-10-12T12:38:39;10.55;;;3.95;;
34900;SDS011;21112;51.976;5.660;2022-10-12T12:41:09;10.57;;;3.40;;
34900;SDS011;21112;51.976;5.660;2022-10-12T12:49:24;17.30;;;6.28;;
34900;SDS011;21112;51.976;5.660;2022-10-12T12:51:51;10.75;;;4.60;;
34900;SDS011;21112;51.976;5.660;2022-10-12T12:54:19;13.63;;;6.23;;
34900;SDS011;21112;51.976;5.660;2022-10-12T12:56:51;15.25;;;5.03;;
34900;SDS011;21112;51.976;5.660;2022-10-12T12:59:26;16.48;;;7.07;;
34900;SDS011;21112;51.976;5.660;2022-10-12T13:02:08;20.02;;;5.88;;
34900;SDS011;21112;51.976;5.660;2022-10-12T13:07:27;21.80;;;7.13;;
34900;SDS011;21112;51.976;5.660;2022-10-12T13:10:01;14.65;;;5.38;;
34900;SDS011;21112;51.976;5.660;2022-10-12T13:15:22;25.00;;;7.68;;
34900;SDS011;21112;51.976;5.660;2022-10-12T13:20:32;21.10;;;8.20;;
34900;SDS011;21112;51.976;5.660;2022-10-12T13:23:00;16.33;;;6.63;;
34900;SDS011;21112;51.976;5.660;2022-10-12T13:25:29;9.25;;;4.13;;
34900;SDS011;21112;51.976;5.660;2022-10-12T13:27:58;25.67;;;8.40;;
34900;SDS011;21112;51.976;5.660;2022-10-12T13:30:29;16.50;;;6.70;;
34900;SDS011;21112;51.976;5.660;2022-10-12T13:33:00;22.27;;;8.10;;
34900;SDS011;21112;51.976;5.660;2022-10-12T13:35:29;18.27;;;6.60;;
34900;SDS011;21112;51.976;5.660;2022-10-12T13:38:02;19.55;;;7.13;;
34900;SDS011;21112;51.976;5.660;2022-10-12T13:40:30;9.30;;;3.92;;
34900;SDS011;21112;51.976;5.660;2022-10-12T13:45:44;10.10;;;4.50;;
34900;SDS011;21112;51.976;5.660;2022-10-12T13:48:12;11.93;;;5.15;;
34900;SDS011;21112;51.976;5.660;2022-10-12T13:50:48;19.63;;;5.95;;
34900;SDS011;21112;51.976;5.660;2022-10-12T13:53:15;10.85;;;5.03;;
34900;SDS011;21112;51.976;5.660;2022-10-12T13:55:49;12.77;;;4.95;;
34900;SDS011;21112;51.976;5.660;2022-10-12T13:58:21;18.80;;;6.40;;
34900;SDS011;21112;51.976;5.660;2022-10-12T14:00:50;12.43;;;5.53;;
34900;SDS011;21112;51.976;5.660;2022-10-12T14:03:17;25.65;;;9.48;;
34900;SDS011;21112;51.976;5.660;2022-10-12T14:05:49;22.45;;;9.48;;
34900;SDS011;21112;51.976;5.660;2022-10-12T14:08:20;23.63;;;8.65;;
34900;SDS011;21112;51.976;5.660;2022-10-12T14:10:47;17.80;;;7.65;;
34900;SDS011;21112;51.976;5.660;2022-10-12T14:13:15;21.55;;;7.30;;
34900;SDS011;21112;51.976;5.660;2022-10-12T14:15:45;19.08;;;7.60;;
34900;SDS011;21112;51.976;5.660;2022-10-12T14:18:31;12.50;;;5.50;;
34900;SDS011;21112;51.976;5.660;2022-10-12T14:21:03;12.55;;;5.43;;
34900;SDS011;21112;51.976;5.660;2022-10-12T14:23:30;16.00;;;5.28;;
34900;SDS011;21112;51.976;5.660;2022-10-12T14:25:57;17.13;;;5.80;;
34900;SDS011;21112;51.976;5.660;2022-10-12T14:28:26;13.20;;;4.75;;
34900;SDS011;21112;51.976;5.660;2022-10-12T14:30:53;10.75;;;4.18;;
34900;SDS011;21112;51.976;5.660;2022-10-12T14:33:20;13.65;;;4.97;;
34900;SDS011;21112;51.976;5.660;2022-10-12T14:35:49;12.95;;;4.35;;
34900;SDS011;21112;51.976;5.660;2022-10-12T14:40:45;18.20;;;5.20;;
34900;SDS011;21112;51.976;5.660;2022-10-12T14:43:19;12.27;;;4.72;;
34900;SDS011;21112;51.976;5.660;2022-10-12T14:45:48;13.50;;;5.25;;
34900;SDS011;21112;51.976;5.660;2022-10-12T14:48:16;12.68;;;4.60;;
34900;SDS011;21112;51.976;5.660;2022-10-12T14:50:43;17.77;;;5.30;;
34900;SDS011;21112;51.976;5.660;2022-10-12T14:53:12;21.80;;;5.72;;
34900;SDS011;21112;51.976;5.660;2022-10-12T14:58:06;12.40;;;4.70;;
34900;SDS011;21112;51.976;5.660;2022-10-12T15:00:34;10.65;;;4.32;;
34900;SDS011;21112;51.976;5.660;2022-10-12T15:03:01;10.90;;;4.60;;
34900;SDS011;21112;51.976;5.660;2022-10-12T15:05:29;17.20;;;4.95;;
34900;SDS011;21112;51.976;5.660;2022-10-12T15:07:56;11.75;;;4.05;;
34900;SDS011;21112;51.976;5.660;2022-10-12T15:10:25;10.18;;;3.40;;
34900;SDS011;21112;51.976;5.660;2022-10-12T15:12:52;11.50;;;3.58;;
34900;SDS011;21112;51.976;5.660;2022-10-12T15:15:23;12.82;;;3.58;;
34900;SDS011;21112;51.976;5.660;2022-10-12T15:17:51;11.30;;;3.78;;
34900;SDS011;21112;51.976;5.660;2022-10-12T15:20:17;12.65;;;3.47;;
34900;SDS011;21112;51.976;5.660;2022-10-12T15:22:44;11.63;;;3.55;;
34900;SDS011;21112;51.976;5.660;2022-10-12T15:25:13;9.40;;;3.50;;
34900;SDS011;21112;51.976;5.660;2022-10-12T15:27:43;8.43;;;3.13;;
34900;SDS011;21112;51.976;5.660;2022-10-12T15:30:10;14.17;;;3.93;;